createdAt,value
2022-12-24T00:01:26.640Z,-4.12
2022-12-24T00:03:41.287Z,-4.10
2022-12-24T00:05:54.274Z,-4.08
2022-12-24T00:08:08.257Z,-4.07
2022-12-24T00:10:21.751Z,-4.06
2022-12-24T00:12:35.706Z,-4.04
2022-12-24T00:14:48.992Z,-4.04
2022-12-24T00:17:02.644Z,-4.02
2022-12-24T00:19:15.833Z,-4.01
2022-12-24T00:21:29.215Z,-4.01
2022-12-24T00:23:43.192Z,-4.01
2022-12-24T00:25:57.872Z,-3.99
2022-12-24T00:28:12.442Z,-3.98
2022-12-24T00:30:25.913Z,-3.96
2022-12-24T00:32:39.072Z,-3.92
2022-12-24T00:34:53.056Z,-3.91
2022-12-24T00:37:07.198Z,-3.89
2022-12-24T00:39:21.054Z,-3.87
2022-12-24T00:41:34.192Z,-3.84
2022-12-24T00:43:48.602Z,-3.81
2022-12-24T00:46:04.086Z,-3.79
2022-12-24T00:48:17.242Z,-3.76
2022-12-24T00:50:29.942Z,-3.74
2022-12-24T00:52:42.828Z,-3.71
2022-12-24T00:54:56.841Z,-3.67
2022-12-24T00:57:11.137Z,-3.62
2022-12-24T00:59:24.367Z,-3.57
2022-12-24T01:01:38.825Z,-3.52
2022-12-24T01:03:53.286Z,-3.46
2022-12-24T01:06:07.506Z,-3.40
2022-12-24T01:08:21.484Z,-3.36
2022-12-24T01:10:35.773Z,-3.33
2022-12-24T01:12:50.011Z,-3.31
2022-12-24T01:15:03.274Z,-3.30
2022-12-24T01:17:17.544Z,-3.29
2022-12-24T01:19:31.422Z,-3.29
2022-12-24T01:21:44.698Z,-3.30
2022-12-24T01:23:58.722Z,-3.31
2022-12-24T01:26:14.450Z,-3.32
2022-12-24T01:28:28.482Z,-3.31
2022-12-24T01:30:43.815Z,-3.31
2022-12-24T01:32:58.403Z,-3.33
2022-12-24T01:35:14.498Z,-3.32
2022-12-24T01:37:27.692Z,-3.35
2022-12-24T01:39:41.008Z,-3.38
2022-12-24T01:42:11.563Z,-3.40
2022-12-24T01:44:36.493Z,-3.39
2022-12-24T01:46:51.153Z,-3.38
2022-12-24T01:49:08.135Z,-3.39
2022-12-24T01:51:29.142Z,-3.41
2022-12-24T01:53:46.121Z,-3.41
2022-12-24T01:56:01.128Z,-3.41
2022-12-24T01:58:17.373Z,-3.40
2022-12-24T02:00:32.189Z,-3.41
2022-12-24T02:02:48.429Z,-3.42
2022-12-24T02:05:06.567Z,-3.42
2022-12-24T02:07:17.155Z,-3.41
2022-12-24T02:09:31.748Z,-3.39
2022-12-24T02:11:47.902Z,-3.37
2022-12-24T02:14:05.496Z,-3.34
2022-12-24T02:16:29.853Z,-3.31
2022-12-24T02:18:54.023Z,-3.28
2022-12-24T02:21:41.219Z,-3.27
2022-12-24T02:24:44.830Z,-3.25
2022-12-24T02:27:26.494Z,-3.23
2022-12-24T02:29:58.974Z,-3.25
2022-12-24T02:32:19.116Z,-3.24
2022-12-24T02:34:39.755Z,-3.24
2022-12-24T02:36:59.470Z,-3.22
2022-12-24T02:39:18.289Z,-3.21
2022-12-24T02:41:55.408Z,-3.21
2022-12-24T02:44:08.221Z,-3.22
2022-12-24T02:46:24.471Z,-3.23
2022-12-24T02:48:40.275Z,-3.21
2022-12-24T02:51:05.700Z,-3.23
2022-12-24T02:53:19.940Z,-3.24
2022-12-24T02:55:43.012Z,-3.24
2022-12-24T02:58:32.984Z,-3.23
2022-12-24T03:01:17.634Z,-3.20
2022-12-24T03:03:51.531Z,-3.18
2022-12-24T03:06:11.324Z,-3.15
2022-12-24T03:08:36.753Z,-3.13
2022-12-24T03:10:55.547Z,-3.10
2022-12-24T03:13:14.042Z,-3.09
2022-12-24T03:15:29.401Z,-3.04
2022-12-24T03:17:45.206Z,-3.02
2022-12-24T03:19:59.677Z,-2.99
2022-12-24T03:22:15.503Z,-2.98
2022-12-24T03:24:28.710Z,-2.95
2022-12-24T03:26:42.339Z,-2.94
2022-12-24T03:28:55.449Z,-2.94
2022-12-24T03:31:11.865Z,-2.95
2022-12-24T03:33:24.825Z,-2.95
2022-12-24T03:35:38.369Z,-2.95
2022-12-24T03:37:51.280Z,-2.94
2022-12-24T03:40:03.922Z,-2.93
2022-12-24T03:42:16.463Z,-2.90
2022-12-24T03:44:30.327Z,-2.87
2022-12-24T03:46:43.548Z,-2.84
2022-12-24T03:48:57.596Z,-2.80
2022-12-24T03:51:19.755Z,-2.78
2022-12-24T03:53:33.917Z,-2.75
2022-12-24T03:55:46.718Z,-2.73
2022-12-24T03:57:59.921Z,-2.71
2022-12-24T04:00:15.258Z,-2.70
2022-12-24T04:02:28.610Z,-2.69
2022-12-24T04:04:44.068Z,-2.69
2022-12-24T04:06:57.031Z,-2.71
2022-12-24T04:09:10.640Z,-2.73
2022-12-24T04:11:23.765Z,-2.73
2022-12-24T04:13:37.679Z,-2.74
2022-12-24T04:16:00.687Z,-2.76
2022-12-24T04:18:14.801Z,-2.77
2022-12-24T04:20:28.852Z,-2.80
2022-12-24T04:22:41.524Z,-2.82
2022-12-24T04:24:55.488Z,-2.82
2022-12-24T04:27:08.671Z,-2.82
2022-12-24T04:29:21.293Z,-2.80
2022-12-24T04:31:36.786Z,-2.79
2022-12-24T04:33:49.709Z,-2.79
2022-12-24T04:36:03.190Z,-2.76
2022-12-24T04:38:16.288Z,-2.72
2022-12-24T04:40:29.324Z,-2.68
2022-12-24T04:42:43.841Z,-2.66
2022-12-24T04:44:56.370Z,-2.63
2022-12-24T04:47:10.102Z,-2.60
2022-12-24T04:49:23.723Z,-2.60
2022-12-24T04:51:38.573Z,-2.58
2022-12-24T04:53:52.335Z,-2.57
2022-12-24T04:56:06.537Z,-2.54
2022-12-24T04:58:20.306Z,-2.51
2022-12-24T05:00:34.126Z,-2.48
2022-12-24T05:02:48.140Z,-2.45
2022-12-24T05:05:02.316Z,-2.43
2022-12-24T05:07:15.825Z,-2.41
2022-12-24T05:09:29.092Z,-2.39
2022-12-24T05:11:43.084Z,-2.38
2022-12-24T05:13:56.182Z,-2.39
2022-12-24T05:16:10.545Z,-2.39
2022-12-24T05:18:23.320Z,-2.40
2022-12-24T05:20:36.448Z,-2.40
2022-12-24T05:23:07.175Z,-2.39
2022-12-24T05:25:37.303Z,-2.38
2022-12-24T05:27:51.573Z,-2.38
2022-12-24T05:30:05.167Z,-2.37
2022-12-24T05:32:17.680Z,-2.35
2022-12-24T05:34:31.546Z,-2.36
2022-12-24T05:36:45.186Z,-2.36
2022-12-24T05:38:58.369Z,-2.36
2022-12-24T05:41:12.406Z,-2.33
2022-12-24T05:43:26.450Z,-2.31
2022-12-24T05:45:39.550Z,-2.30
2022-12-24T05:47:53.856Z,-2.29
2022-12-24T05:50:07.057Z,-2.27
2022-12-24T05:52:20.171Z,-2.24
2022-12-24T05:54:33.392Z,-2.24
2022-12-24T05:56:46.586Z,-2.26
2022-12-24T05:59:00.555Z,-2.27
2022-12-24T06:01:14.747Z,-2.28
2022-12-24T06:03:27.930Z,-2.28
2022-12-24T06:05:42.577Z,-2.27
2022-12-24T06:07:56.460Z,-2.26
2022-12-24T06:10:11.857Z,-2.24
2022-12-24T06:12:26.380Z,-2.22
2022-12-24T06:14:39.226Z,-2.20
2022-12-24T06:16:53.522Z,-2.20
2022-12-24T06:19:07.231Z,-2.17
2022-12-24T06:21:20.974Z,-2.15
2022-12-24T06:23:36.698Z,-2.12
2022-12-24T06:25:51.013Z,-2.09
2022-12-24T06:28:04.701Z,-2.07
2022-12-24T06:30:19.203Z,-2.08
2022-12-24T06:32:32.103Z,-2.08
2022-12-24T06:34:45.585Z,-2.07
2022-12-24T06:37:01.941Z,-2.07
2022-12-24T06:39:14.968Z,-2.08
2022-12-24T06:41:28.871Z,-2.09
2022-12-24T06:43:42.326Z,-2.09
2022-12-24T06:45:56.054Z,-2.09
2022-12-24T06:48:10.406Z,-2.10
2022-12-24T06:50:23.682Z,-2.08
2022-12-24T06:52:37.240Z,-2.06
2022-12-24T06:54:50.168Z,-2.05
2022-12-24T06:57:03.937Z,-2.05
2022-12-24T06:59:17.093Z,-2.01
2022-12-24T07:01:30.265Z,-1.98
2022-12-24T07:03:44.931Z,-1.96
2022-12-24T07:05:59.518Z,-1.97
2022-12-24T07:08:12.577Z,-1.99
2022-12-24T07:10:26.804Z,-2.00
2022-12-24T07:12:40.622Z,-2.00
2022-12-24T07:14:53.999Z,-2.00
2022-12-24T07:17:07.219Z,-2.01
2022-12-24T07:19:20.331Z,-2.02
2022-12-24T07:21:34.418Z,-2.02
2022-12-24T07:23:48.619Z,-2.03
2022-12-24T07:26:02.463Z,-2.02
2022-12-24T07:28:15.248Z,-2.04
2022-12-24T07:30:28.438Z,-2.01
2022-12-24T07:32:42.335Z,-2.00
2022-12-24T07:34:55.890Z,-2.01
2022-12-24T07:37:09.904Z,-2.03
2022-12-24T07:39:22.971Z,-2.03
2022-12-24T07:41:41.670Z,-2.03
2022-12-24T07:43:54.958Z,-2.02
2022-12-24T07:46:09.267Z,-2.03
2022-12-24T07:48:23.026Z,-2.04
2022-12-24T07:50:36.130Z,-2.03
2022-12-24T07:52:50.148Z,-2.04
2022-12-24T07:55:03.169Z,-2.05
2022-12-24T07:57:16.003Z,-2.08
2022-12-24T07:59:29.846Z,-2.08
2022-12-24T08:01:44.279Z,-2.09
2022-12-24T08:03:58.266Z,-2.10
2022-12-24T08:06:14.328Z,-2.10
2022-12-24T08:08:28.353Z,-2.10
2022-12-24T08:10:44.425Z,-2.10
2022-12-24T08:12:58.723Z,-2.08
2022-12-24T08:15:13.099Z,-2.06
2022-12-24T08:17:31.996Z,-2.07
2022-12-24T08:19:46.060Z,-2.06
2022-12-24T08:21:59.852Z,-2.05
2022-12-24T08:24:13.129Z,-2.05
2022-12-24T08:26:26.249Z,-2.05
2022-12-24T08:28:40.999Z,-2.04
2022-12-24T08:30:55.153Z,-2.02
2022-12-24T08:33:08.897Z,-2.01
2022-12-24T08:35:22.100Z,-1.99
2022-12-24T08:37:35.451Z,-1.98
2022-12-24T08:39:48.829Z,-2.00
2022-12-24T08:42:03.043Z,-2.01
2022-12-24T08:44:16.977Z,-2.04
2022-12-24T08:46:31.498Z,-2.06
2022-12-24T08:48:45.901Z,-2.07
2022-12-24T08:50:59.805Z,-2.08
2022-12-24T08:53:14.082Z,-2.09
2022-12-24T08:55:27.239Z,-2.11
2022-12-24T08:57:41.243Z,-2.10
2022-12-24T08:59:55.523Z,-2.09
2022-12-24T09:02:10.263Z,-2.08
2022-12-24T09:04:23.443Z,-2.07
2022-12-24T09:06:37.447Z,-2.05
2022-12-24T09:08:52.103Z,-2.02
2022-12-24T09:11:09.104Z,-1.98
2022-12-24T09:13:22.493Z,-1.95
2022-12-24T09:15:35.981Z,-1.94
2022-12-24T09:17:50.273Z,-1.93
2022-12-24T09:20:03.991Z,-1.94
2022-12-24T09:22:18.387Z,-1.93
2022-12-24T09:24:32.946Z,-1.92
2022-12-24T09:26:55.588Z,-1.91
2022-12-24T09:29:13.338Z,-1.90
2022-12-24T09:31:27.848Z,-1.90
2022-12-24T09:33:43.370Z,-1.89
2022-12-24T09:35:59.505Z,-1.90
2022-12-24T09:38:13.243Z,-1.90
2022-12-24T09:40:32.601Z,-1.91
2022-12-24T09:42:54.572Z,-1.91
2022-12-24T09:45:18.177Z,-1.92
2022-12-24T09:47:36.785Z,-1.94
2022-12-24T09:49:55.603Z,-1.95
2022-12-24T09:52:13.666Z,-1.98
2022-12-24T09:54:33.177Z,-2.01
2022-12-24T09:56:49.896Z,-2.00
2022-12-24T09:59:05.874Z,-2.01
2022-12-24T10:01:22.389Z,-2.02
2022-12-24T10:03:36.910Z,-2.01
2022-12-24T10:05:56.845Z,-2.00
2022-12-24T10:08:21.119Z,-2.01
2022-12-24T10:10:40.747Z,-2.00
2022-12-24T10:13:04.270Z,-1.99
2022-12-24T10:15:25.948Z,-1.99
2022-12-24T10:17:49.856Z,-2.00
2022-12-24T10:20:12.099Z,-1.99
2022-12-24T10:22:32.004Z,-1.97
2022-12-24T10:24:51.106Z,-1.95
2022-12-24T10:27:10.232Z,-1.94
2022-12-24T10:29:26.867Z,-1.92
2022-12-24T10:31:43.361Z,-1.91
2022-12-24T10:34:01.824Z,-1.90
2022-12-24T10:36:20.170Z,-1.89
2022-12-24T10:38:34.646Z,-1.88
2022-12-24T10:40:50.241Z,-1.86
2022-12-24T10:43:03.340Z,-1.84
2022-12-24T10:45:22.717Z,-1.84
2022-12-24T10:47:40.530Z,-1.84
2022-12-24T10:49:58.804Z,-1.84
2022-12-24T10:52:15.777Z,-1.84
2022-12-24T10:54:35.500Z,-1.84
2022-12-24T10:56:51.482Z,-1.82
2022-12-24T10:59:05.590Z,-1.80
2022-12-24T11:01:20.050Z,-1.78
2022-12-24T11:03:36.710Z,-1.77
2022-12-24T11:06:02.704Z,-1.77
2022-12-24T11:08:24.291Z,-1.75
2022-12-24T11:10:40.172Z,-1.73
2022-12-24T11:13:20.358Z,-1.73
2022-12-24T11:15:35.559Z,-1.74
2022-12-24T11:17:56.568Z,-1.73
2022-12-24T11:20:10.681Z,-1.73
2022-12-24T11:22:28.377Z,-1.72
2022-12-24T11:24:49.790Z,-1.72
2022-12-24T11:27:21.667Z,-1.74
2022-12-24T11:29:35.976Z,-1.73
2022-12-24T11:31:50.537Z,-1.73
2022-12-24T11:34:03.573Z,-1.74
2022-12-24T11:36:20.700Z,-1.73
2022-12-24T11:38:36.106Z,-1.71
2022-12-24T11:40:51.961Z,-1.69
2022-12-24T11:43:14.671Z,-1.66
2022-12-24T11:45:31.851Z,-1.63
2022-12-24T11:47:46.347Z,-1.61
2022-12-24T11:50:21.686Z,-1.60
2022-12-24T11:52:36.086Z,-1.58
2022-12-24T11:55:03.577Z,-1.58
2022-12-24T11:57:21.033Z,-1.56
2022-12-24T11:59:39.992Z,-1.55
2022-12-24T12:02:01.780Z,-1.52
2022-12-24T12:04:20.571Z,-1.51
2022-12-24T12:06:40.871Z,-1.53
2022-12-24T12:08:57.459Z,-1.52
2022-12-24T12:11:18.677Z,-1.51
2022-12-24T12:13:35.979Z,-1.50
2022-12-24T12:15:54.628Z,-1.50
2022-12-24T12:18:14.954Z,-1.50
2022-12-24T12:20:33.783Z,-1.49
2022-12-24T12:22:54.884Z,-1.49
2022-12-24T12:25:14.117Z,-1.50
2022-12-24T12:27:35.605Z,-1.52
2022-12-24T12:29:54.491Z,-1.52
2022-12-24T12:32:13.925Z,-1.52
2022-12-24T12:34:31.703Z,-1.52
2022-12-24T12:36:49.973Z,-1.53
2022-12-24T12:39:03.601Z,-1.51
2022-12-24T12:41:38.432Z,-1.51
2022-12-24T12:44:23.961Z,-1.49
2022-12-24T12:46:47.129Z,-1.47
2022-12-24T12:49:25.104Z,-1.48
2022-12-24T12:51:48.037Z,-1.49
2022-12-24T12:54:22.148Z,-1.51
2022-12-24T12:56:38.714Z,-1.54
2022-12-24T12:58:56.447Z,-1.56
2022-12-24T13:01:18.342Z,-1.58
2022-12-24T13:03:52.927Z,-1.58
2022-12-24T13:06:40.845Z,-1.58
2022-12-24T13:09:26.755Z,-1.58
2022-12-24T13:12:03.132Z,-1.61
2022-12-24T13:14:32.436Z,-1.60
2022-12-24T13:17:11.024Z,-1.60
2022-12-24T13:19:42.874Z,-1.61
2022-12-24T13:22:00.009Z,-1.60
2022-12-24T13:24:21.959Z,-1.61
2022-12-24T13:26:35.689Z,-1.60
2022-12-24T13:28:50.026Z,-1.60
2022-12-24T13:31:31.119Z,-1.61
2022-12-24T13:34:01.063Z,-1.58
2022-12-24T13:36:17.590Z,-1.55
2022-12-24T13:38:50.653Z,-1.51
2022-12-24T13:41:42.250Z,-1.47
2022-12-24T13:44:21.341Z,-1.43
2022-12-24T13:46:57.647Z,-1.39
2022-12-24T13:49:24.847Z,-1.36
2022-12-24T13:51:39.345Z,-1.32
2022-12-24T13:54:02.425Z,-1.29
2022-12-24T13:56:29.367Z,-1.28
2022-12-24T13:58:46.578Z,-1.27
2022-12-24T14:01:05.326Z,-1.26
2022-12-24T14:03:31.403Z,-1.24
2022-12-24T14:05:50.267Z,-1.23
2022-12-24T14:08:05.282Z,-1.24
2022-12-24T14:10:29.222Z,-1.26
2022-12-24T14:12:56.368Z,-1.27
2022-12-24T14:15:38.129Z,-1.29
2022-12-24T14:17:53.945Z,-1.32
2022-12-24T14:20:17.423Z,-1.34
2022-12-24T14:22:37.738Z,-1.38
2022-12-24T14:24:54.960Z,-1.43
2022-12-24T14:27:17.982Z,-1.45
2022-12-24T14:29:35.211Z,-1.48
2022-12-24T14:31:56.947Z,-1.51
2022-12-24T14:34:19.459Z,-1.51
2022-12-24T14:36:33.587Z,-1.52
2022-12-24T14:38:47.992Z,-1.54
2022-12-24T14:41:10.453Z,-1.54
2022-12-24T14:43:32.447Z,-1.52
2022-12-24T14:45:50.689Z,-1.51
2022-12-24T14:48:15.051Z,-1.50
2022-12-24T14:50:50.763Z,-1.50
2022-12-24T14:53:15.149Z,-1.49
2022-12-24T14:55:39.699Z,-1.51
2022-12-24T14:57:53.949Z,-1.53
2022-12-24T15:00:25.010Z,-1.55
2022-12-24T15:02:45.492Z,-1.55
2022-12-24T15:07:34.165Z,-1.53
2022-12-24T15:09:47.990Z,-1.53
2022-12-24T15:12:04.489Z,-1.53
2022-12-24T15:14:19.620Z,-1.51
2022-12-24T15:16:35.464Z,-1.49
2022-12-24T15:18:52.642Z,-1.48
2022-12-24T15:21:08.902Z,-1.46
2022-12-24T15:23:31.999Z,-1.47
2022-12-24T15:25:46.358Z,-1.48
2022-12-24T15:28:00.147Z,-1.45
2022-12-24T15:30:21.360Z,-1.43
2022-12-24T15:32:34.375Z,-1.41
2022-12-24T15:34:50.529Z,-1.39
2022-12-24T15:37:11.060Z,-1.38
2022-12-24T15:39:25.639Z,-1.37
2022-12-24T15:42:06.117Z,-1.35
2022-12-24T15:44:22.294Z,-1.31
2022-12-24T15:46:36.513Z,-1.29
2022-12-24T15:48:52.755Z,-1.25
2022-12-24T15:51:09.255Z,-1.22
2022-12-24T15:53:25.440Z,-1.18
2022-12-24T15:55:42.273Z,-1.16
2022-12-24T15:57:55.599Z,-1.14
2022-12-24T16:00:25.223Z,-1.15
2022-12-24T16:02:46.321Z,-1.17
2022-12-24T16:05:22.605Z,-1.19
2022-12-24T16:07:57.308Z,-1.19
2022-12-24T16:10:29.677Z,-1.21
2022-12-24T16:12:43.866Z,-1.22
2022-12-24T16:14:59.897Z,-1.22
2022-12-24T16:17:25.302Z,-1.20
2022-12-24T16:19:40.627Z,-1.18
2022-12-24T16:21:58.027Z,-1.15
2022-12-24T16:24:22.446Z,-1.13
2022-12-24T16:26:36.441Z,-1.12
2022-12-24T16:28:50.472Z,-1.11
2022-12-24T16:31:03.545Z,-1.13
2022-12-24T16:33:22.605Z,-1.15
2022-12-24T16:35:39.467Z,-1.15
2022-12-24T16:37:52.576Z,-1.14
2022-12-24T16:40:09.182Z,-1.14
2022-12-24T16:42:42.445Z,-1.14
2022-12-24T16:44:58.039Z,-1.14
2022-12-24T16:47:14.341Z,-1.17
2022-12-24T16:49:29.002Z,-1.19
2022-12-24T16:51:42.002Z,-1.23
2022-12-24T16:53:55.815Z,-1.26
2022-12-24T16:56:10.719Z,-1.27
2022-12-24T16:58:24.233Z,-1.28
2022-12-24T17:00:38.381Z,-1.30
2022-12-24T17:02:53.176Z,-1.32
2022-12-24T17:05:07.079Z,-1.34
2022-12-24T17:07:22.488Z,-1.35
2022-12-24T17:09:35.953Z,-1.36
2022-12-24T17:11:49.149Z,-1.37
2022-12-24T17:14:08.157Z,-1.36
2022-12-24T17:16:22.093Z,-1.34
2022-12-24T17:18:34.546Z,-1.33
2022-12-24T17:20:47.676Z,-1.29
2022-12-24T17:23:02.580Z,-1.26
2022-12-24T17:25:18.152Z,-1.23
2022-12-24T17:27:32.325Z,-1.26
2022-12-24T17:29:45.691Z,-1.22
2022-12-24T17:31:58.685Z,-1.21
2022-12-24T17:34:12.096Z,-1.17
2022-12-24T17:36:25.643Z,-1.14
2022-12-24T17:38:40.177Z,-1.14
2022-12-24T17:40:52.584Z,-1.16
2022-12-24T17:43:05.989Z,-1.15
2022-12-24T17:45:20.186Z,-1.12
2022-12-24T17:47:34.333Z,-1.09
2022-12-24T17:49:47.866Z,-1.07
2022-12-24T17:52:01.019Z,-1.03
2022-12-24T17:54:15.088Z,-1.01
2022-12-24T17:56:29.291Z,-0.97
2022-12-24T17:58:43.929Z,-0.96
2022-12-24T18:00:57.456Z,-0.95
2022-12-24T18:03:11.189Z,-0.95
2022-12-24T18:05:24.466Z,-0.95
2022-12-24T18:07:40.317Z,-0.90
2022-12-24T18:09:53.767Z,-0.88
2022-12-24T18:12:08.036Z,-0.85
2022-12-24T18:14:21.809Z,-0.83
2022-12-24T18:16:36.953Z,-0.80
2022-12-24T18:18:52.495Z,-0.80
2022-12-24T18:21:08.044Z,-0.79
2022-12-24T18:23:21.230Z,-0.78
2022-12-24T18:25:34.465Z,-0.79
2022-12-24T18:27:47.802Z,-0.80
2022-12-24T18:30:01.546Z,-0.80
2022-12-24T18:32:17.977Z,-0.82
2022-12-24T18:34:31.290Z,-0.83
2022-12-24T18:36:48.289Z,-0.83
2022-12-24T18:39:07.200Z,-0.86
2022-12-24T18:41:22.346Z,-0.89
2022-12-24T18:43:36.077Z,-0.91
2022-12-24T18:45:50.016Z,-0.94
2022-12-24T18:48:03.267Z,-0.96
2022-12-24T18:50:17.042Z,-0.97
2022-12-24T18:52:33.249Z,-0.99
2022-12-24T18:54:46.682Z,-1.01
2022-12-24T18:56:59.855Z,-1.03
2022-12-24T18:59:13.833Z,-1.05
2022-12-24T19:01:28.971Z,-1.06
2022-12-24T19:03:43.276Z,-1.06
2022-12-24T19:05:56.460Z,-1.08
2022-12-24T19:08:37.801Z,-1.05
2022-12-24T19:10:46.161Z,-1.00
2022-12-24T19:13:00.724Z,-0.96
2022-12-24T19:15:16.191Z,-0.93
2022-12-24T19:17:29.174Z,-0.91
2022-12-24T19:19:43.238Z,-0.87
2022-12-24T19:21:56.384Z,-0.85
2022-12-24T19:24:11.607Z,-0.84
2022-12-24T19:26:25.213Z,-0.84
2022-12-24T19:28:38.921Z,-0.83
2022-12-24T19:30:52.848Z,-0.82
2022-12-24T19:33:05.967Z,-0.81
2022-12-24T19:35:19.107Z,-0.78
2022-12-24T19:37:33.277Z,-0.77
2022-12-24T19:39:47.632Z,-0.75
2022-12-24T19:42:01.572Z,-0.72
2022-12-24T19:44:16.131Z,-0.70
2022-12-24T19:46:31.400Z,-0.71
2022-12-24T19:48:45.864Z,-0.74
2022-12-24T19:51:06.049Z,-0.74
2022-12-24T19:53:20.244Z,-0.73
2022-12-24T19:55:34.052Z,-0.70
2022-12-24T19:57:48.013Z,-0.66
2022-12-24T20:00:02.074Z,-0.64
2022-12-24T20:02:25.706Z,-0.62
2022-12-24T20:04:39.668Z,-0.59
2022-12-24T20:06:59.679Z,-0.56
2022-12-24T20:09:15.637Z,-0.53
2022-12-24T20:11:29.721Z,-0.51
2022-12-24T20:13:44.072Z,-0.49
2022-12-24T20:15:56.752Z,-0.47
2022-12-24T20:18:10.762Z,-0.45
2022-12-24T20:20:24.048Z,-0.42
2022-12-24T20:22:37.362Z,-0.39
2022-12-24T20:24:50.638Z,-0.37
2022-12-24T20:27:03.898Z,-0.40
2022-12-24T20:29:17.863Z,-0.43
2022-12-24T20:31:33.147Z,-0.50
2022-12-24T20:33:47.775Z,-0.58
2022-12-24T20:36:03.971Z,-0.62
2022-12-24T20:38:17.373Z,-0.65
2022-12-24T20:40:31.632Z,-0.66
2022-12-24T20:42:44.810Z,-0.65
2022-12-24T20:45:01.812Z,-0.61
2022-12-24T20:47:15.739Z,-0.59
2022-12-24T20:49:30.354Z,-0.57
2022-12-24T20:51:44.731Z,-0.53
2022-12-24T20:53:58.784Z,-0.49
2022-12-24T20:56:13.098Z,-0.44
2022-12-24T20:58:26.648Z,-0.39
2022-12-24T21:00:40.568Z,-0.35
2022-12-24T21:02:53.570Z,-0.31
2022-12-24T21:05:09.223Z,-0.30
2022-12-24T21:07:23.660Z,-0.30
2022-12-24T21:09:37.774Z,-0.27
2022-12-24T21:12:19.814Z,-0.26
2022-12-24T21:14:33.993Z,-0.24
2022-12-24T21:16:50.825Z,-0.24
2022-12-24T21:19:04.441Z,-0.24
2022-12-24T21:21:17.432Z,-0.23
2022-12-24T21:23:31.314Z,-0.21
2022-12-24T21:25:45.635Z,-0.20
2022-12-24T21:27:59.604Z,-0.20
2022-12-24T21:30:15.083Z,-0.20
2022-12-24T21:32:29.323Z,-0.19
2022-12-24T21:34:42.471Z,-0.19
2022-12-24T21:36:55.576Z,-0.21
2022-12-24T21:39:09.130Z,-0.24
2022-12-24T21:41:24.778Z,-0.24
2022-12-24T21:43:38.931Z,-0.24
2022-12-24T21:45:54.984Z,-0.24
2022-12-24T21:48:30.187Z,-0.23
2022-12-24T21:50:58.235Z,-0.22
2022-12-24T21:53:28.992Z,-0.21
2022-12-24T21:55:42.182Z,-0.19
2022-12-24T21:57:57.906Z,-0.19
2022-12-24T22:00:27.659Z,-0.16
2022-12-24T22:02:43.807Z,-0.15
2022-12-24T22:04:58.155Z,-0.16
2022-12-24T22:07:27.843Z,-0.15
2022-12-24T22:09:59.011Z,-0.13
2022-12-24T22:12:14.759Z,-0.11
2022-12-24T22:14:28.692Z,-0.08
2022-12-24T22:16:40.878Z,-0.07
2022-12-24T22:18:54.066Z,-0.08
2022-12-24T22:21:09.500Z,-0.08
2022-12-24T22:23:23.736Z,-0.06
2022-12-24T22:25:37.794Z,-0.05
2022-12-24T22:27:50.807Z,-0.03
2022-12-24T22:30:03.893Z,0.01
2022-12-24T22:32:16.957Z,0.06
2022-12-24T22:34:30.163Z,0.11
2022-12-24T22:36:43.963Z,0.15
2022-12-24T22:38:58.881Z,0.18
2022-12-24T22:41:18.134Z,0.20
2022-12-24T22:43:32.104Z,0.23
2022-12-24T22:45:47.075Z,0.26
2022-12-24T22:48:01.004Z,0.29
2022-12-24T22:50:15.894Z,0.32
2022-12-24T22:52:29.541Z,0.37
2022-12-24T22:54:45.763Z,0.42
2022-12-24T22:56:58.940Z,0.46
2022-12-24T22:59:15.817Z,0.50
2022-12-24T23:01:40.203Z,0.54
2022-12-24T23:03:54.314Z,0.59
2022-12-24T23:06:09.234Z,0.61
2022-12-24T23:08:22.424Z,0.63
2022-12-24T23:10:35.724Z,0.64
2022-12-24T23:13:08.514Z,0.65
2022-12-24T23:15:26.789Z,0.66
2022-12-24T23:17:40.008Z,0.67
2022-12-24T23:19:53.468Z,0.68
2022-12-24T23:22:09.307Z,0.68
2022-12-24T23:24:22.567Z,0.70
2022-12-24T23:26:37.506Z,0.71
2022-12-24T23:28:51.107Z,0.72
2022-12-24T23:31:10.063Z,0.74
2022-12-24T23:33:24.093Z,0.76
2022-12-24T23:35:37.123Z,0.79
2022-12-24T23:37:50.130Z,0.82
2022-12-24T23:40:03.640Z,0.84
2022-12-24T23:42:16.680Z,0.84
2022-12-24T23:44:32.417Z,0.87
2022-12-24T23:46:46.201Z,0.89
2022-12-24T23:49:01.680Z,0.92
2022-12-24T23:51:18.385Z,0.93
2022-12-24T23:53:31.643Z,0.92
2022-12-24T23:55:46.140Z,0.88
2022-12-24T23:57:58.669Z,0.85
